Time;durP1;ratioP1;P1;durP2;ratioP2;P2;SDS_P1;SDS_P2;PMS_P1;PMS_P2;Temp;Humidity;BMP_temperature;BMP_pressure;BME280_temperature;BME280_humidity;BME280_pressure;Samples;Min_cycle;Max_cycle;Signal;HPM_P1;HPM_P2
2024/04/11 12:51:49;;;;;;;;;8.25;6.25;;;;;21.65;44.47;101657.59;146715;570;45012;-62
2024/04/11 12:59:05;;;;;;;;;5.00;5.00;;;;;22.33;43.13;101638.66;146705;582;44022;-63
2024/04/11 13:07:29;;;;;;;;;5.00;4.00;;;;;22.17;42.64;101619.87;146634;569;45012;-63
2024/04/11 13:17:44;;;;;;;;;;;;;;;;;;;;;
2024/04/11 13:22:03;;;;;;;;;;;;;;;;;;;;;
2024/04/11 13:25:46;;;;;;;;;;;;;;;;;;;;;
2024/04/11 13:28:41;;;;;;;;;6.33;5.00;;;;;22.38;42.66;101646.69;146718;569;44022;-60
2024/04/11 13:32:50;;;;;;;;;;;;;;;;;;;;;
2024/04/11 13:36:58;;;;;;;;;;;;;;;;;;;;;
2024/04/11 14:09:56;;;;;;;;;8.00;6.25;;;;;23.00;41.05;101587.75;146717;564;45014;-72
2024/04/11 14:13:33;;;;;;;;;7.00;6.00;;;;;22.64;41.35;101593.34;146633;657;45014;-67
2024/04/11 14:20:50;;;;;;;;;10.00;7.50;;;;;22.48;41.32;101586.94;146631;656;45914;-69
2024/04/11 14:24:58;;;;;;;;;6.00;6.00;;;;;22.55;40.67;101557.09;146637;669;45023;-68
2024/04/11 14:28:58;;;;;;;;;;;;;;;;;;;;;
2024/04/11 14:33:17;;;;;;;;;7.75;6.00;;;;;23.28;40.04;101587.25;146637;600;45023;-67
2024/04/11 14:37:09;;;;;;;;;8.00;6.00;;;;;23.52;39.89;101613.16;146630;593;46016;-67
2024/04/11 14:40:45;;;;;;;;;3.25;3.00;;;;;23.59;40.57;101594.69;146637;707;45021;-68
2024/04/11 14:44:32;;;;;;;;;7.75;6.00;;;;;23.80;39.29;101612.59;146632;617;45918;-69
2024/04/11 14:48:57;;;;;;;;;;;;;;;;;;;;;
2024/04/11 14:52:58;;;;;;;;;;;;;;;;;;;;;
2024/04/11 14:57:10;;;;;;;;;6.00;6.00;;;;;23.79;39.73;101639.94;146636;591;45020;-68
2024/04/11 15:00:57;;;;;;;;;;;;;;;;;;;;;
2024/04/11 15:05:03;;;;;;;;;;;;;;;;;;;;;
2024/04/11 15:16:52;;;;;;;;;9.25;8.00;;;;;23.09;42.08;101555.25;146627;649;45033;-69
2024/04/11 15:21:00;;;;;;;;;;;;;;;;;;;;;
2024/04/11 15:28:22;;;;;;;;;8.00;7.25;;;;;23.25;41.35;101647.19;146631;569;45022;-67
2024/04/11 15:32:32;;;;;;;;;9.00;7.33;;;;;22.93;42.37;101597.34;146627;686;45019;-68
2024/04/11 15:44:07;;;;;;;;;5.33;5.33;;;;;22.57;42.33;101572.09;146635;579;45020;-68
2024/04/11 15:48:02;;;;;;;;;7.33;7.00;;;;;22.66;41.94;101597.81;146626;569;45918;-68
2024/04/11 15:52:06;;;;;;;;;;;;;;;;;;;;;
2024/04/11 15:55:55;;;;;;;;;8.75;7.00;;;;;22.40;42.65;101570.97;146626;611;45914;-67
2024/04/11 15:59:50;;;;;;;;;;;;;;;;;;;;;
2024/04/11 16:03:36;;;;;;;;;9.00;7.67;;;;;22.46;42.61;101596.59;146630;595;45018;-67
2024/04/11 16:07:26;;;;;;;;;;;;;;;;;;;;;
2024/04/11 16:11:41;;;;;;;;;;;;;;;;;;;;;
2024/04/11 16:15:44;;;;;;;;;8.67;7.33;;;;;22.03;42.59;101535.97;146653;577;44021;-70
2024/04/11 17:34:56;;;;;;;;;16.75;15.25;;;;;19.02;47.81;101661.13;146641;569;46010;-69
2024/04/11 17:38:24;;;;;;;;;11.00;10.00;;;;;19.20;47.97;101666.97;146612;608;47017;-69
2024/04/11 17:41:57;;;;;;;;;18.50;15.00;;;;;19.28;47.47;101669.81;146615;584;47008;-69
2024/04/11 17:45:14;;;;;;;;;17.50;15.00;;;;;19.37;47.50;101675.34;146608;596;47012;-68
2024/04/11 17:48:10;;;;;;;;;16.75;14.75;;;;;19.39;46.90;101684.19;146614;578;47008;-69
2024/04/11 17:51:19;;;;;;;;;13.75;12.75;;;;;19.34;47.25;101691.91;146611;581;46017;-69
2024/04/11 17:54:18;;;;;;;;;14.50;13.25;;;;;19.33;47.53;101679.62;146617;602;46020;-68
2024/04/11 17:57:10;;;;;;;;;17.50;13.00;;;;;19.34;47.24;101684.03;146608;577;47010;-69
2024/04/11 18:00:14;;;;;;;;;14.25;10.25;;;;;19.33;46.55;101690.16;146614;582;47008;-68
2024/04/11 18:03:16;;;;;;;;;10.25;10.25;;;;;19.26;46.69;101682.94;146612;563;46016;-68
2024/04/11 18:06:38;;;;;;;;;13.00;11.00;;;;;18.87;46.81;101622.97;146613;564;47008;-68
2024/04/11 18:09:41;;;;;;;;;12.00;11.25;;;;;19.11;46.24;101688.59;146611;618;47016;-69
2024/04/11 18:12:41;;;;;;;;;10.50;10.00;;;;;18.97;45.61;101689.91;146618;648;46008;-68
2024/04/11 18:15:59;;;;;;;;;7.25;6.00;;;;;18.85;46.48;101694.75;146611;625;46912;-69
2024/04/11 18:19:09;;;;;;;;;10.00;8.00;;;;;18.74;46.32;101689.12;146622;605;46025;-68
2024/04/11 18:22:28;;;;;;;;;12.00;9.00;;;;;18.69;46.66;101691.59;146618;596;47011;-69
2024/04/11 18:25:30;;;;;;;;;7.67;7.33;;;;;18.65;45.97;101686.16;146623;578;47008;-68
2024/04/11 18:28:43;;;;;;;;;;;;;;;;;;;;;
2024/04/11 18:31:41;;;;;;;;;9.00;9.00;;;;;18.59;45.69;101694.72;146616;611;47010;-71
2024/04/11 18:34:53;;;;;;;;;7.75;7.00;;;;;17.88;46.77;101582.87;146631;594;48010;-70
2024/04/11 18:38:06;;;;;;;;;9.75;9.25;;;;;18.40;46.51;101682.69;146614;571;47008;-69
2024/04/11 18:41:29;;;;;;;;;12.75;9.25;;;;;18.39;47.30;101693.16;146607;627;48016;-68
2024/04/11 18:47:42;;;;;;;;;10.25;10.00;;;;;18.30;46.34;101696.34;146609;610;46016;-68
2024/04/11 18:51:03;;;;;;;;;11.50;10.25;;;;;18.33;45.75;101713.94;146611;673;46026;-67
2024/04/11 18:54:20;;;;;;;;;7.00;6.75;;;;;17.69;46.73;101597.91;146603;570;47010;-68
2024/04/11 18:57:32;;;;;;;;;;;;;;;;;;;;;
2024/04/11 19:00:43;;;;;;;;;14.00;10.25;;;;;18.29;46.01;101714.69;146612;583;46016;-68
2024/04/11 19:03:37;;;;;;;;;10.75;9.25;;;;;18.28;45.13;101719.03;146607;662;47008;-69
2024/04/11 19:06:49;;;;;;;;;11.00;10.00;;;;;18.21;45.54;101724.91;146611;570;47010;-68
2024/04/11 19:10:00;;;;;;;;;12.00;10.75;;;;;18.19;45.52;101739.69;146606;664;47008;-71
2024/04/11 19:13:10;;;;;;;;;12.00;12.00;;;;;18.13;46.02;101721.09;146604;626;47012;-68
2024/04/11 19:16:21;;;;;;;;;13.00;11.50;;;;;18.10;46.39;101734.09;146605;637;48008;-71
2024/04/11 19:19:32;;;;;;;;;14.00;11.00;;;;;18.05;47.25;101726.06;146606;581;46016;-68
2024/04/11 19:22:36;;;;;;;;;10.25;10.00;;;;;17.99;46.03;101725.84;146607;612;47008;-69
2024/04/11 19:25:35;;;;;;;;;12.50;12.00;;;;;18.02;47.25;101733.84;146604;587;47010;-69
2024/04/11 19:28:43;;;;;;;;;15.00;13.25;;;;;18.06;47.95;101748.84;146611;583;46021;-71
2024/04/11 19:31:48;;;;;;;;;11.00;11.00;;;;;18.02;48.01;101738.19;146604;573;47010;-68
2024/04/11 19:34:45;;;;;;;;;13.25;12.00;;;;;18.05;48.25;101738.31;146610;620;46021;-69
2024/04/11 19:38:06;;;;;;;;;13.50;12.50;;;;;18.05;48.25;101747.06;146603;651;46017;-69
2024/04/11 19:40:59;;;;;;;;;12.25;10.25;;;;;18.03;48.06;101743.50;146610;595;47020;-69
2024/04/11 19:43:55;;;;;;;;;11.00;10.00;;;;;18.03;47.86;101747.84;146605;595;47011;-69
2024/04/11 19:47:10;;;;;;;;;10.25;9.50;;;;;18.00;48.53;101727.63;146609;589;46020;-69
2024/04/11 19:50:08;;;;;;;;;10.50;9.25;;;;;17.66;46.30;101702.75;146610;602;47017;-69
2024/04/11 19:53:40;;;;;;;;;11.75;11.00;;;;;17.85;46.88;101756.84;146618;563;46008;-69
2024/04/11 19:56:39;;;;;;;;;14.75;14.50;;;;;17.83;47.12;101724.38;146603;611;46017;-68
2024/04/11 19:59:36;;;;;;;;;13.25;10.50;;;;;17.82;46.68;101748.84;146608;721;46008;-69
2024/04/11 20:02:57;;;;;;;;;9.00;8.00;;;;;17.08;47.32;101609.63;146604;634;47010;-69
2024/04/11 20:05:55;;;;;;;;;12.00;9.00;;;;;17.72;46.45;101742.28;146617;695;46008;-70
2024/04/11 20:08:50;;;;;;;;;12.00;11.00;;;;;17.72;46.50;101747.53;146611;622;47010;-68
2024/04/11 20:11:49;;;;;;;;;11.25;10.00;;;;;17.71;46.27;101740.53;146608;737;47009;-72
2024/04/11 20:15:26;;;;;;;;;10.50;9.25;;;;;17.67;47.20;101740.34;146605;689;46016;-68
2024/04/11 20:18:10;;;;;;;;;11.75;10.25;;;;;17.68;46.05;101721.16;146617;601;46008;-69
2024/04/11 20:21:30;;;;;;;;;12.00;11.75;;;;;16.98;46.95;101635.44;146602;572;47012;-69
2024/04/11 20:24:38;;;;;;;;;13.75;12.00;;;;;17.29;46.17;101674.22;146610;566;47008;-69
2024/04/11 20:27:35;;;;;;;;;11.50;8.75;;;;;17.70;45.06;101737.84;146606;597;46017;-69
2024/04/11 20:30:41;;;;;;;;;9.25;9.00;;;;;17.70;45.29;101737.84;146615;576;46020;-68
2024/04/11 20:33:36;;;;;;;;;8.00;8.00;;;;;17.71;45.25;101743.13;146611;690;46909;-69
2024/04/11 20:36:39;;;;;;;;;9.00;8.00;;;;;17.65;44.29;101755.13;146616;694;46021;-68
2024/04/11 20:39:51;;;;;;;;;10.50;8.50;;;;;17.60;45.81;101748.78;146608;572;47012;-69
2024/04/11 20:43:18;;;;;;;;;9.50;8.50;;;;;17.62;45.70;101745.41;146613;642;47021;-68
2024/04/11 21:36:18;;;;;;;;;7.00;7.00;;;;;17.47;43.91;101731.69;146617;678;46008;-68
2024/04/11 21:39:16;;;;;;;;;7.50;7.50;;;;;17.48;43.94;101751.87;146610;637;47010;-70
2024/04/11 21:42:20;;;;;;;;;7.00;6.00;;;;;17.48;43.56;101784.22;146615;577;46020;-70
2024/04/11 21:45:20;;;;;;;;;6.00;6.00;;;;;17.57;43.67;101778.44;146611;698;47010;-69
2024/04/11 21:48:15;;;;;;;;;7.25;6.25;;;;;17.71;42.95;101748.37;146616;574;47011;-69
2024/04/11 21:51:19;;;;;;;;;7.25;6.25;;;;;17.80;42.45;101781.09;146610;651;46016;-71
2024/04/11 21:54:13;;;;;;;;;10.00;7.75;;;;;17.83;43.38;101787.34;146617;681;46020;-69
2024/04/11 21:57:05;;;;;;;;;6.00;6.00;;;;;17.85;43.16;101751.59;146612;672;47012;-68
2024/04/11 22:03:37;;;;;;;;;7.25;6.75;;;;;17.87;44.46;101791.00;146611;570;46909;-70
2024/04/11 22:06:46;;;;;;;;;6.75;6.75;;;;;17.90;43.88;101785.84;146609;569;48020;-70
2024/04/11 22:09:54;;;;;;;;;8.50;7.25;;;;;17.95;44.46;101787.81;146612;618;46010;-69
2024/04/11 22:13:42;;;;;;;;;8.00;7.25;;;;;17.29;45.52;101682.09;146616;566;47008;-69
2024/04/11 22:16:54;;;;;;;;;8.50;8.50;;;;;17.99;45.41;101787.09;146613;629;46016;-68
2024/04/11 22:20:17;;;;;;;;;10.00;9.00;;;;;17.67;44.87;101753.47;146613;564;47008;-71
2024/04/11 22:23:26;;;;;;;;;9.50;8.00;;;;;17.93;45.43;101796.47;146611;601;47010;-71
2024/04/11 22:26:34;;;;;;;;;8.00;8.00;;;;;17.79;46.01;101795.94;146615;619;46021;-72
2024/04/11 22:29:29;;;;;;;;;7.75;7.00;;;;;17.68;45.63;101799.84;146613;703;46037;-72
2024/04/11 22:32:32;;;;;;;;;11.00;9.00;;;;;17.51;46.39;101794.84;146615;605;46021;-72
2024/04/11 22:35:40;;;;;;;;;9.50;8.00;;;;;17.40;46.66;101796.13;146628;604;47010;-72
2024/04/11 22:38:38;;;;;;;;;12.75;10.50;;;;;17.27;46.92;101794.72;146639;631;45020;-68
2024/04/11 22:41:39;;;;;;;;;11.75;8.00;;;;;17.10;47.78;101793.13;146633;592;46010;-69
2024/04/11 22:44:43;;;;;;;;;9.50;8.25;;;;;16.96;48.22;101797.78;146642;615;45020;-70
2024/04/11 22:47:50;;;;;;;;;7.75;7.75;;;;;16.79;48.51;101802.31;146638;564;46016;-70
2024/04/11 22:50:54;;;;;;;;;9.00;8.25;;;;;16.67;48.91;101798.25;146635;611;45021;-71
2024/04/11 22:53:53;;;;;;;;;9.00;9.00;;;;;16.61;48.40;101799.75;146628;564;46010;-69
2024/04/11 22:57:15;;;;;;;;;10.75;8.25;;;;;15.83;48.93;101675.03;146635;695;46008;-68
2024/04/11 23:03:34;;;;;;;;;8.00;8.00;;;;;16.26;49.04;101800.81;146629;578;45021;-68
2024/04/11 23:06:55;;;;;;;;;7.75;7.75;;;;;16.11;49.57;101798.41;146630;646;46010;-72
2024/04/11 23:09:57;;;;;;;;;9.00;8.00;;;;;15.99;49.24;101782.13;146637;621;45020;-71
2024/04/11 23:13:05;;;;;;;;;9.25;8.00;;;;;15.93;49.70;101787.09;146633;704;45016;-72
2024/04/11 23:16:00;;;;;;;;;9.75;8.00;;;;;15.86;49.64;101782.41;146627;580;47008;-72
2024/04/11 23:19:14;;;;;;;;;9.50;7.00;;;;;15.79;50.02;101780.31;146628;598;46012;-71
2024/04/11 23:22:25;;;;;;;;;8.00;8.00;;;;;15.73;49.72;101780.00;146627;563;47010;-71
2024/04/11 23:25:27;;;;;;;;;9.25;9.00;;;;;15.67;50.18;101778.03;146634;579;46010;-72
2024/04/11 23:28:33;;;;;;;;;6.75;6.75;;;;;15.62;50.14;101776.88;146635;573;45020;-71
2024/04/11 23:31:35;;;;;;;;;8.25;7.75;;;;;15.52;50.46;101778.16;146631;657;45912;-71
2024/04/11 23:34:32;;;;;;;;;8.50;7.50;;;;;15.45;50.52;101783.88;146610;706;46020;-72
2024/04/11 23:37:31;;;;;;;;;9.00;8.00;;;;;15.38;50.67;101777.47;146608;590;47016;-73
2024/04/11 23:40:42;;;;;;;;;7.75;7.00;;;;;15.34;50.17;101774.66;146616;647;46020;-75
2024/04/11 23:43:48;;;;;;;;;9.50;9.00;;;;;15.28;50.55;101763.91;146612;571;47016;-71
2024/04/11 23:47:04;;;;;;;;;8.00;6.00;;;;;15.20;50.44;101756.59;146615;625;46008;-70
2024/04/11 23:50:11;;;;;;;;;10.50;9.75;;;;;15.18;50.70;101753.00;146608;595;46016;-71
2024/04/11 23:53:17;;;;;;;;;7.50;7.00;;;;;15.18;50.86;101767.78;146615;639;47008;-73
2024/04/11 23:56:23;;;;;;;;;9.50;7.75;;;;;15.18;50.60;101767.78;146610;564;47016;-74
2024/04/11 23:59:21;;;;;;;;;6.75;6.75;;;;;15.13;51.04;101764.94;146616;669;47020;-73
